x

West Tampa - 112 Nm Wnw Of Tampa, Fl (42036) Wave Buoy

5:50am - Fri 19th Sep 2014 All times are EDT. -4 hours from GMT.

  • Sig Wave height 0.7ft
  • Average Period 4s
  • Wind
    22mph, 27mph gusts
  • Sea Temp 84°f
  • Air Temp 78°f
  • Sea Pressure 1011.8mb
  • West Tampa  - 112 Nm Wnw Of Tampa, Fl
  • West Tampa  - 112 Nm Wnw Of Tampa, Fl

More Historic Weather Station data

Upgrade to MSW Pro to gain access to the past 30 days of data for over 8000 Wavebouys and Weather Stations around the globe.

Join Pro

Comparision Forecast

View Surf forecast
   
Fri 09/19 5:50am 0.7ft  -  4s 22 27 mph 1011.8mb 84f 78f
4:50am 0.7ft  -  4s 7 9 mph 1012.2mb 85f 83f
3:50am 0.7ft  -  4s 7
mph
1012.5mb 85f 83f
2:50am 0.7ft  -  5s 4 7 mph 1012.9mb 85f 83f
1:50am 0.7ft  -  4s 4
mph
1013.5mb 85f 83f
12:50am 0.7ft  -  4s 4 7 mph 1013.8mb 85f 83f
Thu 09/18 11:50pm 0.7ft  -  4s  -  4 mph 1013.8mb 85f 83f
10:50pm 0.7ft  -  4s 4
mph
1013.7mb 85f 83f
9:50pm 0.7ft  -  5s 2 4 mph 1013.1mb 85f 83f
8:50pm 0.7ft  -  4s  -  mph 1012.5mb 85f 83f
7:50pm 0.7ft  -  4s  -  2 mph 1012.3mb 86f 83f
6:50pm 0.7ft  -  4s  -  mph 1012.5mb 86f 83f
5:50pm 0.7ft  -  4s 2
mph
1012.5mb 86f 83f
4:50pm 0.7ft  -  4s 2 4 mph 1012.4mb 87f 83f
3:50pm 1ft 4s 4s 2 4 mph 1012.6mb 87f 83f
2:50pm 1ft 5s 4s 4
mph
1013mb 87f 83f
1:50pm 1ft 5s 4s 4 7 mph 1013.7mb 86f 83f
12:50pm 1ft 5s 4s 4 7 mph 1014.2mb 85f 82f
11:50am 1ft 5s 4s 2 4 mph 1014.6mb 85f 83f
10:50am 1.3ft 5s 4s 4 7 mph 1014.1mb 85f 82f
9:50am 1.3ft 6s 4s 4 7 mph 1013.7mb 85f 82f
8:50am 1.3ft 5s 4s 4
mph
1013.4mb 85f 83f
7:50am 1.3ft 4s 4s 4 7 mph 1012.9mb 85f 82f
6:50am 1.3ft 5s 4s 4 7 mph 1012.3mb 85f 82f
5:50am 1.3ft 5s 4s 2 4 mph 1012mb 85f 82f
4:50am 1.3ft 5s 4s 4 7 mph 1011.9mb 85f 81f
3:50am 1.3ft 5s 4s  -  2 mph 1011.8mb 85f 81f
2:50am 1.6ft 5s 4s 2 4 mph 1012.4mb 85f 82f
1:50am 1.6ft 5s 4s 4
mph
1012.7mb 85f 82f
12:50am 1.6ft 5s 4s  -  2 mph 1013.3mb 85f 82f
Wed 09/17 11:50pm 1.6ft 5s 4s 4
mph
1013.7mb 85f 82f
10:50pm 2ft 5s 4s 2
mph
1013.7mb 85f 82f
9:50pm 2ft 5s 4s 2
mph
1013.2mb 85f 82f
8:50pm 2ft 5s 4s 2 4 mph 1012.4mb 85f 82f
7:50pm 2ft 5s 4s 2
mph
1012mb 85f 82f
6:50pm 2ft 5s 4s 2 4 mph 1011.7mb 86f 83f
5:50pm 2ft 5s 4s 4
mph
1011.9mb 86f 83f
4:50pm 2.5ft 5s 4s 4
mph
1011.9mb 86f 82f
3:50pm 2.5ft 5s 4s 2 4 mph 1012.5mb 86f 82f
2:50pm 2.5ft 5s 4s 2 4 mph 1013.2mb 85f 81f
1:50pm 2.5ft 5s 4s 4 7 mph 1013.5mb 85f 82f
12:50pm 2.5ft 5s 4s 4 9 mph 1014.3mb 85f 81f
11:50am 2.5ft 5s 4s 7 9 mph 1014.5mb 85f 81f
10:50am 2.5ft 5s 4s 11 13 mph 1014mb 85f 81f
9:50am 2.5ft 5s 4s 16 18 mph 1013.7mb 85f 82f
8:50am 3ft 5s 4s 13 16 mph 1013.4mb 85f 82f
7:50am 2.5ft 5s 4s 16 18 mph 1013.1mb 85f 82f
6:50am 2.5ft 5s 4s 13 16 mph 1013mb 85f 82f
5:50am 2.5ft 5s 4s 16 20 mph 1013mb 85f 81f
4:50am 2.5ft 5s 4s 9 11 mph 1012.7mb 85f 81f
3:50am 2.5ft 5s 4s 18 22 mph 1012.7mb 85f 80f
2:50am 2.5ft 5s 4s 11
mph
1013.7mb 85f 81f
1:50am 3ft 6s 4s 11 16 mph 1014.7mb 85f 81f
12:50am 3ft 6s 4s 13 18 mph 1015.1mb 85f 81f
Tue 09/16 11:50pm 3ft 6s 4s 13 16 mph 1015.7mb 85f 81f
10:50pm 3.5ft 5s 5s 13
mph
1015.4mb 85f 82f
9:50pm 3ft 6s 4s 9 13 mph 1015.8mb 85f 82f
8:50pm 3.5ft 5s 4s 11 16 mph 1015.5mb 85f 82f
7:50pm 3.5ft 5s 4s 13 16 mph 1015.6mb 85f 81f
6:50pm 4ft 6s 5s 11 13 mph 1016mb 85f 81f
5:50pm 4.5ft 6s 5s 9 13 mph 1016mb 85f 80f
4:50pm 4.5ft 5s 5s 11 13 mph 1015.6mb 85f 81f
3:50pm 5ft 5s 5s 20 22 mph 1016.2mb 85f 81f
2:50pm 5ft 5s 4s 22 27 mph 1016.6mb 85f 80f
1:50pm 4.5ft 5s 4s 27 31 mph 1017.4mb 85f 79f
12:50pm 3.5ft 5s 4s 27 31 mph 1017.8mb 85f 79f
11:50am 2.5ft 4s 4s 22 25 mph 1018.4mb 85f 80f
10:50am 2.5ft 4s 4s 11 13 mph 1018.7mb 85f 82f
9:50am 2.5ft 4s 4s 7 9 mph 1018.9mb 85f 83f
8:50am 2.5ft 4s 4s 9 11 mph 1018.4mb 85f 83f
7:50am 3ft 6s 4s 13 16 mph 1017.6mb 85f 83f
6:50am 2.5ft 5s 4s 16 18 mph 1017.9mb 85f 84f
5:50am 2.5ft 7s 5s 11 13 mph 1018.1mb 85f 83f
4:50am 2.5ft 6s 5s 9 13 mph 1018.1mb 85f 82f
3:50am 2.5ft 6s 5s 7
mph
1018.7mb 85f 80f
2:50am 2.5ft 6s 4s 11 13 mph 1019.5mb 85f 79f
1:50am 2.5ft 7s 4s 4 7 mph 1020.6mb 84f 77f
12:50am 3.5ft 4s 4s 9 13 mph 1021mb 85f 77f
Mon 09/15 11:50pm 2.5ft 7s 5s 16 22 mph 1020.5mb 85f 83f
10:50pm 3ft 6s 5s 11 13 mph 1020.2mb 85f 84f
9:50pm 2.5ft 7s 5s 9 11 mph 1020mb 85f 84f
8:50pm 3ft 5s 5s 9 11 mph 1019.3mb 85f 84f
7:50pm 3.5ft 6s 5s 11 13 mph 1018.7mb 85f 84f
6:50pm 3.5ft 6s 5s 9 11 mph 1018.8mb 85f 84f
5:50pm 3.5ft 6s 5s 9 13 mph 1018.7mb 85f 83f
4:50pm 4ft 6s 5s 11 13 mph 1018.9mb 85f 82f
3:50pm 4ft 6s 5s 11 13 mph 1019.5mb 85f 82f
2:50pm 4ft 5s 5s 16 18 mph 1019.7mb 85f 82f
1:50pm 4ft 6s 4s 20 22 mph 1020.4mb 85f 81f
12:50pm 4ft 5s 4s 13 16 mph 1020.5mb 85f 82f
11:50am 4ft 6s 5s 20 22 mph 1021mb 85f 79f